createdAt,value
2022-10-05T00:02:16.721Z,96939.19
2022-10-05T00:04:43.373Z,96917.25
2022-10-05T00:07:15.328Z,96949.59
2022-10-05T00:09:42.670Z,96909.91
2022-10-05T00:12:13.537Z,96924.28
2022-10-05T00:14:40.437Z,96957.16
2022-10-05T00:17:07.115Z,96925.06
2022-10-05T00:19:37.219Z,96949.31
2022-10-05T00:22:21.685Z,96915.38
2022-10-05T00:24:55.069Z,96939.66
2022-10-05T00:27:31.249Z,96940.94
2022-10-05T00:30:00.293Z,96926.34
2022-10-05T00:32:27.209Z,96880.75
2022-10-05T00:34:54.510Z,96921.34
2022-10-05T00:37:21.063Z,96921.63
2022-10-05T00:39:49.479Z,96884.56
2022-10-05T00:42:48.910Z,96926.56
2022-10-05T00:45:24.865Z,96888.09
2022-10-05T00:48:16.244Z,96889.06
2022-10-05T00:51:06.303Z,96913.03
2022-10-05T00:53:51.110Z,96909.16
2022-10-05T00:56:25.357Z,96872.63
2022-10-05T00:59:19.893Z,96904.06
2022-10-05T01:02:15.359Z,96909.56
2022-10-05T01:04:54.107Z,96919.44
2022-10-05T01:07:43.608Z,96885.72
2022-10-05T01:10:40.626Z,96919.09
2022-10-05T01:13:22.494Z,96916.22
2022-10-05T01:15:57.977Z,96863.53
2022-10-05T01:18:40.194Z,96889.59
2022-10-05T01:21:24.828Z,96913.91
2022-10-05T01:24:17.221Z,96904.56
2022-10-05T01:27:10.479Z,96894.09
2022-10-05T01:29:49.141Z,96913.44
2022-10-05T01:32:23.763Z,96910.81
2022-10-05T01:35:05.021Z,96865.72
2022-10-05T01:37:46.495Z,96903.75
2022-10-05T01:40:37.663Z,96885.16
2022-10-05T01:43:42.186Z,96890.41
2022-10-05T01:46:24.404Z,96905.31
2022-10-05T01:49:13.002Z,96857.63
2022-10-05T01:51:56.706Z,96897.00
2022-10-05T01:54:57.440Z,96900.97
2022-10-05T01:57:42.197Z,96902.22
2022-10-05T02:00:12.870Z,96897.78
2022-10-05T02:02:48.829Z,96847.19
2022-10-05T02:05:18.661Z,96889.94
2022-10-05T02:07:51.922Z,96899.63
2022-10-05T02:10:24.381Z,96895.69
2022-10-05T02:12:58.472Z,96891.56
2022-10-05T02:15:42.030Z,96889.84
2022-10-05T02:18:16.206Z,96849.88
2022-10-05T02:20:44.851Z,96906.22
2022-10-05T02:23:17.873Z,96917.22
2022-10-05T02:25:47.529Z,96921.69
2022-10-05T02:28:29.332Z,96889.63
2022-10-05T02:31:06.805Z,96912.09
2022-10-05T02:33:34.693Z,96863.81
2022-10-05T02:36:32.943Z,96862.72
2022-10-05T02:39:11.955Z,96872.91
2022-10-05T02:41:56.452Z,96895.09
2022-10-05T02:44:39.809Z,96892.56
2022-10-05T02:47:23.872Z,96893.31
2022-10-05T02:50:15.441Z,96877.88
2022-10-05T02:52:56.460Z,96879.69
2022-10-05T02:55:56.818Z,96882.81
2022-10-05T02:58:27.481Z,96871.09
2022-10-05T03:01:13.775Z,96879.16
2022-10-05T03:04:09.058Z,96869.84
2022-10-05T03:06:50.450Z,96870.66
2022-10-05T03:09:21.692Z,96836.97
2022-10-05T03:12:21.798Z,96862.03
2022-10-05T03:15:11.400Z,96871.13
2022-10-05T03:18:02.289Z,96863.84
2022-10-05T03:20:53.925Z,96872.44
2022-10-05T03:23:39.678Z,96853.41
2022-10-05T03:26:13.640Z,96878.69
2022-10-05T03:28:56.438Z,96857.84
2022-10-05T03:31:43.756Z,96884.72
2022-10-05T03:34:31.872Z,96850.03
2022-10-05T03:37:21.263Z,96874.56
2022-10-05T03:39:50.845Z,96871.94
2022-10-05T03:42:33.100Z,96832.28
2022-10-05T03:45:02.716Z,96843.22
2022-10-05T03:47:37.199Z,96872.44
2022-10-05T03:50:20.271Z,96783.50
2022-10-05T03:53:02.830Z,96839.59
2022-10-05T03:55:39.524Z,96858.38
2022-10-05T03:58:54.344Z,96857.31
2022-10-05T04:01:31.338Z,96854.97
2022-10-05T04:04:04.150Z,96837.47
2022-10-05T04:06:35.846Z,96853.16
2022-10-05T04:09:30.471Z,96827.59
2022-10-05T04:12:24.073Z,96829.66
2022-10-05T04:14:57.400Z,96844.28
2022-10-05T04:17:33.920Z,96839.03
2022-10-05T04:20:04.013Z,96789.75
2022-10-05T04:22:48.665Z,96806.16
2022-10-05T04:25:21.121Z,96782.47
2022-10-05T04:27:54.927Z,96797.84
2022-10-05T04:30:24.952Z,96784.28
2022-10-05T04:32:57.486Z,96827.34
2022-10-05T04:35:48.427Z,96807.47
2022-10-05T04:38:44.790Z,96824.44
2022-10-05T04:41:45.704Z,96827.84
2022-10-05T04:44:41.343Z,96829.66
2022-10-05T04:47:33.043Z,96833.84
2022-10-05T04:50:38.222Z,96827.81
2022-10-05T04:53:10.379Z,96828.06
2022-10-05T04:55:52.201Z,96833.75
2022-10-05T04:58:52.193Z,96835.34
2022-10-05T05:01:33.728Z,96809.50
2022-10-05T05:04:29.864Z,96823.84
2022-10-05T05:06:56.488Z,96810.78
2022-10-05T05:09:38.314Z,96818.59
2022-10-05T05:12:19.727Z,96826.44
2022-10-05T05:14:57.718Z,96836.19
2022-10-05T05:17:33.702Z,96812.69
2022-10-05T05:20:23.370Z,96839.31
2022-10-05T05:23:13.227Z,96818.44
2022-10-05T05:25:48.055Z,96835.41
2022-10-05T05:28:42.287Z,96816.88
2022-10-05T05:31:33.543Z,96837.75
2022-10-05T05:34:20.646Z,96830.97
2022-10-05T05:36:55.557Z,96804.59
2022-10-05T05:39:49.214Z,96832.25
2022-10-05T05:42:24.528Z,96828.34
2022-10-05T05:44:56.405Z,96790.53
2022-10-05T05:47:38.246Z,96835.13
2022-10-05T05:50:07.638Z,96839.25
2022-10-05T05:52:51.230Z,96831.66
2022-10-05T05:55:30.527Z,96848.16
2022-10-05T05:58:02.390Z,96867.22
2022-10-05T06:00:37.897Z,96858.84
2022-10-05T06:03:21.307Z,96854.53
2022-10-05T06:05:53.901Z,96830.59
2022-10-05T06:08:33.924Z,96868.97
2022-10-05T06:11:18.941Z,96870.56
2022-10-05T06:13:46.881Z,96839.50
2022-10-05T06:16:23.245Z,96872.91
2022-10-05T06:19:04.954Z,96873.47
2022-10-05T06:21:37.358Z,96832.78
2022-10-05T06:24:10.273Z,96878.47
2022-10-05T06:27:04.966Z,96882.91
2022-10-05T06:30:14.259Z,96886.81
2022-10-05T06:32:45.089Z,96891.47
2022-10-05T06:35:49.377Z,96895.09
2022-10-05T06:38:42.219Z,96899.91
2022-10-05T06:41:32.411Z,96901.59
2022-10-05T06:44:02.034Z,96896.09
2022-10-05T06:47:30.685Z,96909.63
2022-10-05T06:50:52.715Z,96915.84
2022-10-05T06:53:48.264Z,96901.66
2022-10-05T06:56:22.299Z,96765.88
2022-10-05T06:59:01.641Z,96861.94
2022-10-05T07:01:40.840Z,96904.31
2022-10-05T07:04:37.063Z,96900.16
2022-10-05T07:07:20.621Z,96898.84
2022-10-05T07:09:56.337Z,96892.22
2022-10-05T07:12:54.192Z,96905.47
2022-10-05T07:15:44.110Z,96901.75
2022-10-05T07:18:50.530Z,96902.22
2022-10-05T07:21:28.190Z,96909.06
2022-10-05T07:24:29.282Z,96917.41
2022-10-05T07:27:17.951Z,96913.38
2022-10-05T07:30:09.719Z,96914.69
2022-10-05T07:33:09.378Z,96911.88
2022-10-05T07:36:15.273Z,96864.69
2022-10-05T07:39:16.157Z,96919.59
2022-10-05T07:41:54.094Z,96921.44
2022-10-05T07:44:39.846Z,96922.41
2022-10-05T07:47:12.094Z,96927.78
2022-10-05T07:49:53.896Z,96905.63
2022-10-05T07:52:24.367Z,96864.22
2022-10-05T07:55:03.261Z,96934.69
2022-10-05T07:58:00.141Z,96940.53
2022-10-05T08:01:00.464Z,96895.38
2022-10-05T08:04:00.247Z,96940.31
2022-10-05T08:06:42.861Z,96943.72
2022-10-05T08:09:37.466Z,96937.53
2022-10-05T08:12:08.954Z,96905.41
2022-10-05T08:14:38.463Z,96935.75
2022-10-05T08:17:15.334Z,96943.72
2022-10-05T08:19:53.592Z,96920.44
2022-10-05T08:22:29.136Z,96941.66
2022-10-05T08:25:01.946Z,96901.97
2022-10-05T08:28:02.275Z,96939.06
2022-10-05T08:30:33.810Z,96922.63
2022-10-05T08:33:12.598Z,96926.53
2022-10-05T08:35:46.253Z,96856.78
2022-10-05T08:38:17.200Z,96914.03
2022-10-05T08:40:46.827Z,96925.69
2022-10-05T08:43:52.978Z,96922.16
2022-10-05T08:46:50.726Z,96902.84
2022-10-05T08:49:54.736Z,96898.84
2022-10-05T08:52:28.951Z,96875.84
2022-10-05T08:55:30.244Z,96886.03
2022-10-05T08:57:58.728Z,96941.75
2022-10-05T09:00:49.035Z,96936.91
2022-10-05T09:03:16.034Z,96937.69
2022-10-05T09:06:04.142Z,96874.22
2022-10-05T09:08:33.731Z,96926.47
2022-10-05T09:11:24.273Z,96929.25
2022-10-05T09:14:18.384Z,96920.81
2022-10-05T09:16:53.483Z,96889.84
2022-10-05T09:19:22.891Z,96921.16
2022-10-05T09:22:15.686Z,96928.19
2022-10-05T09:25:08.620Z,96891.16
2022-10-05T09:27:54.734Z,96894.75
2022-10-05T09:30:57.892Z,96876.38
2022-10-05T09:33:42.555Z,96928.56
2022-10-05T09:36:27.495Z,96924.13
2022-10-05T09:39:15.907Z,96925.34
2022-10-05T09:41:51.818Z,96907.22
2022-10-05T09:44:22.049Z,96907.66
2022-10-05T09:47:00.851Z,96911.81
2022-10-05T09:49:39.527Z,96871.31
2022-10-05T09:52:06.195Z,96907.19
2022-10-05T09:54:56.092Z,96910.13
2022-10-05T09:57:46.386Z,96880.75
2022-10-05T10:00:29.502Z,96915.22
2022-10-05T10:03:19.615Z,96917.09
2022-10-05T10:06:16.991Z,96875.84
2022-10-05T10:08:48.506Z,96867.06
2022-10-05T10:11:45.639Z,96881.44
2022-10-05T10:14:30.868Z,96911.91
2022-10-05T10:17:06.814Z,96902.66
2022-10-05T10:19:36.121Z,96902.88
2022-10-05T10:22:24.146Z,96905.66
2022-10-05T10:25:19.177Z,96901.56
2022-10-05T10:27:54.319Z,96896.44
2022-10-05T10:30:39.804Z,96898.88
2022-10-05T10:33:28.301Z,96893.66
2022-10-05T10:36:13.138Z,96897.00
2022-10-05T10:38:51.924Z,96871.34
2022-10-05T10:41:49.075Z,96866.69
2022-10-05T10:44:48.769Z,96872.78
2022-10-05T10:47:50.536Z,96888.78
2022-10-05T10:50:29.271Z,96889.00
2022-10-05T10:53:22.671Z,96880.94
2022-10-05T10:56:11.645Z,96889.97
2022-10-05T10:59:09.211Z,96886.31
2022-10-05T11:01:36.183Z,96888.00
2022-10-05T11:04:08.793Z,96878.25
2022-10-05T11:06:35.341Z,96882.53
2022-10-05T11:09:24.841Z,96878.38
2022-10-05T11:12:05.441Z,96886.22
2022-10-05T11:15:16.722Z,96878.16
2022-10-05T11:17:43.295Z,96875.16
2022-10-05T11:21:07.535Z,96869.56
2022-10-05T11:23:39.912Z,96874.66
2022-10-05T11:26:27.915Z,96866.75
2022-10-05T11:29:00.536Z,96857.00
2022-10-05T11:31:45.477Z,96827.03
2022-10-05T11:34:32.056Z,96841.59
2022-10-05T11:37:40.878Z,96832.00
2022-10-05T11:40:33.363Z,96859.22
2022-10-05T11:43:33.929Z,96859.22
2022-10-05T11:46:24.614Z,96854.22
2022-10-05T11:48:51.259Z,96848.78
2022-10-05T11:51:29.586Z,96776.88
2022-10-05T11:54:52.154Z,96851.78
2022-10-05T11:57:40.800Z,96814.19
2022-10-05T12:00:25.814Z,96850.28
2022-10-05T12:03:14.354Z,96848.16
2022-10-05T12:05:51.508Z,96830.31
2022-10-05T12:08:48.329Z,96803.22
2022-10-05T12:11:36.136Z,96837.28
2022-10-05T12:14:10.582Z,96813.38
2022-10-05T12:16:41.891Z,96810.22
2022-10-05T12:19:23.896Z,96841.91
2022-10-05T12:22:15.536Z,96824.47
2022-10-05T12:25:08.679Z,96765.50
2022-10-05T12:27:41.049Z,96804.81
2022-10-05T12:30:36.433Z,96832.94
2022-10-05T12:33:15.943Z,96838.50
2022-10-05T12:35:50.615Z,96824.84
2022-10-05T12:38:47.477Z,96833.81
2022-10-05T12:41:17.885Z,96808.00
2022-10-05T12:44:12.431Z,96835.38
2022-10-05T12:46:52.557Z,96838.81
2022-10-05T12:49:28.520Z,96837.13
2022-10-05T12:52:01.041Z,96785.91
2022-10-05T12:54:54.952Z,96809.59
2022-10-05T12:57:30.588Z,96825.84
2022-10-05T13:00:10.918Z,96825.22
2022-10-05T13:02:49.079Z,96808.19
2022-10-05T13:05:26.489Z,96783.50
2022-10-05T13:08:11.374Z,96824.41
2022-10-05T13:10:52.842Z,96825.13
2022-10-05T13:13:39.487Z,96800.53
2022-10-05T13:16:22.339Z,96814.06
2022-10-05T13:19:24.136Z,96802.22
2022-10-05T13:22:04.458Z,96820.75
2022-10-05T13:24:45.764Z,96779.59
2022-10-05T13:27:23.473Z,96819.06
2022-10-05T13:30:25.973Z,96784.84
2022-10-05T13:33:19.859Z,96808.19
2022-10-05T13:35:57.874Z,96765.53
2022-10-05T13:38:37.764Z,96816.56
2022-10-05T13:41:26.556Z,96751.91
2022-10-05T13:44:20.576Z,96809.53
2022-10-05T13:47:31.579Z,96795.75
2022-10-05T13:50:33.449Z,96809.16
2022-10-05T13:53:21.890Z,96808.78
2022-10-05T13:56:13.807Z,96810.25
2022-10-05T13:59:11.929Z,96797.94
2022-10-05T14:02:02.044Z,96776.75
2022-10-05T14:04:42.043Z,96779.47
2022-10-05T14:07:39.122Z,96800.50
2022-10-05T14:10:14.830Z,96793.75
2022-10-05T14:12:46.030Z,96785.00
2022-10-05T14:15:29.478Z,96800.91
2022-10-05T14:17:56.646Z,96791.00
2022-10-05T14:20:31.020Z,96785.25
2022-10-05T14:23:01.181Z,96765.34
2022-10-05T14:25:30.016Z,96808.13
2022-10-05T14:27:59.760Z,96792.69
2022-10-05T14:30:29.346Z,96772.22
2022-10-05T14:33:14.096Z,96771.97
2022-10-05T14:35:50.369Z,96786.81
2022-10-05T14:38:55.234Z,96791.59
2022-10-05T14:41:25.452Z,96784.28
2022-10-05T14:44:13.262Z,96788.66
2022-10-05T14:46:52.319Z,96783.00
2022-10-05T14:49:22.090Z,96791.41
2022-10-05T14:51:53.462Z,96774.19
2022-10-05T14:54:27.418Z,96789.31
2022-10-05T14:57:06.596Z,96794.47
2022-10-05T15:00:00.698Z,96786.63
2022-10-05T15:02:42.318Z,96788.13
2022-10-05T15:05:23.279Z,96772.97
2022-10-05T15:07:51.705Z,96739.38
2022-10-05T15:10:18.870Z,96781.69
2022-10-05T15:12:48.369Z,96782.34
2022-10-05T15:15:49.871Z,96770.06
2022-10-05T15:18:39.288Z,96776.63
2022-10-05T15:21:06.339Z,96765.78
2022-10-05T15:23:41.032Z,96768.41
2022-10-05T15:26:19.775Z,96768.06
2022-10-05T15:28:51.634Z,96677.06
2022-10-05T15:31:39.339Z,96759.41
2022-10-05T15:34:22.224Z,96760.84
2022-10-05T15:37:03.085Z,96756.88
2022-10-05T15:39:41.500Z,96690.75
2022-10-05T15:42:16.178Z,96756.03
2022-10-05T15:45:02.371Z,96757.72
2022-10-05T15:47:52.131Z,96716.19
2022-10-05T15:50:32.348Z,96752.34
2022-10-05T15:53:16.392Z,96755.28
2022-10-05T15:56:01.398Z,96761.81
2022-10-05T15:58:31.159Z,96751.75
2022-10-05T16:01:05.273Z,96748.91
2022-10-05T16:03:49.652Z,96749.50
2022-10-05T16:06:56.178Z,96755.88
2022-10-05T16:09:45.974Z,96761.31
2022-10-05T16:12:34.661Z,96766.81
2022-10-05T16:15:16.901Z,96761.75
2022-10-05T16:18:18.575Z,96739.03
2022-10-05T16:21:00.420Z,96710.94
2022-10-05T16:24:05.090Z,96755.09
2022-10-05T16:26:56.099Z,96762.53
2022-10-05T16:29:32.960Z,96761.41
2022-10-05T16:32:46.323Z,96764.63
2022-10-05T16:35:16.730Z,96762.38
2022-10-05T16:38:09.949Z,96761.13
2022-10-05T16:41:03.766Z,96763.47
2022-10-05T16:43:54.118Z,96763.41
2022-10-05T16:46:22.184Z,96757.84
2022-10-05T16:49:07.946Z,96755.66
2022-10-05T16:51:42.050Z,96712.53
2022-10-05T16:54:12.082Z,96760.31
2022-10-05T16:56:44.185Z,96726.13
2022-10-05T16:59:39.554Z,96755.34
2022-10-05T17:02:24.778Z,96757.78
2022-10-05T17:05:17.979Z,96766.28
2022-10-05T17:07:50.939Z,96767.28
2022-10-05T17:10:45.928Z,96770.47
2022-10-05T17:13:34.371Z,96772.78
2022-10-05T17:16:32.720Z,96777.75
2022-10-05T17:19:19.273Z,96777.50
2022-10-05T17:22:00.990Z,96779.78
2022-10-05T17:24:47.693Z,96782.00
2022-10-05T17:27:17.857Z,96783.97
2022-10-05T17:29:51.844Z,96779.19
2022-10-05T17:32:18.558Z,96776.84
2022-10-05T17:35:39.701Z,96789.53
2022-10-05T17:38:17.170Z,96782.09
2022-10-05T17:41:10.534Z,96778.53
2022-10-05T17:43:37.741Z,96782.88
2022-10-05T17:46:10.906Z,96773.88
2022-10-05T17:48:37.797Z,96787.25
2022-10-05T17:51:46.269Z,96780.75
2022-10-05T17:54:48.171Z,96785.91
2022-10-05T17:57:27.715Z,96786.78
2022-10-05T17:59:55.651Z,96785.94
2022-10-05T18:02:40.630Z,96790.13
2022-10-05T18:05:14.557Z,96784.56
2022-10-05T18:07:48.552Z,96783.31
2022-10-05T18:10:28.794Z,96784.75
2022-10-05T18:12:58.767Z,96785.19
2022-10-05T18:15:25.359Z,96790.53
2022-10-05T18:17:54.862Z,96748.03
2022-10-05T18:20:24.200Z,96787.78
2022-10-05T18:22:53.093Z,96785.34
2022-10-05T18:25:22.882Z,96790.03
2022-10-05T18:28:07.968Z,96788.84
2022-10-05T18:31:12.296Z,96769.84
2022-10-05T18:33:38.985Z,96790.84
2022-10-05T18:36:20.793Z,96796.16
2022-10-05T18:38:53.358Z,96797.47
2022-10-05T18:41:47.219Z,96747.78
2022-10-05T18:44:31.747Z,96803.53
2022-10-05T18:46:58.383Z,96803.25
2022-10-05T18:49:40.273Z,96764.09
2022-10-05T18:52:13.600Z,96776.09
2022-10-05T18:55:11.358Z,96809.47
2022-10-05T18:57:41.046Z,96808.72
2022-10-05T19:00:17.054Z,96807.31
2022-10-05T19:02:50.945Z,96784.34
2022-10-05T19:05:59.672Z,96807.22
2022-10-05T19:09:11.183Z,96784.06
2022-10-05T19:11:51.208Z,96803.78
2022-10-05T19:14:26.517Z,96800.50
2022-10-05T19:17:30.820Z,96810.00
2022-10-05T19:20:46.869Z,96807.19
2022-10-05T19:23:38.311Z,96809.69
2022-10-05T19:26:17.694Z,96779.53
2022-10-05T19:29:22.566Z,96783.53
2022-10-05T19:32:08.933Z,96813.53
2022-10-05T19:34:41.785Z,96822.41
2022-10-05T19:37:19.740Z,96798.44
2022-10-05T19:40:08.690Z,96826.41
2022-10-05T19:42:54.735Z,96817.22
2022-10-05T19:45:31.578Z,96807.13
2022-10-05T19:48:08.509Z,96821.63
2022-10-05T19:50:38.451Z,96827.06
2022-10-05T19:53:13.243Z,96821.13
2022-10-05T19:55:47.166Z,96825.47
2022-10-05T19:58:28.917Z,96834.16
2022-10-05T20:01:07.094Z,96834.16
2022-10-05T20:03:37.856Z,96743.81
2022-10-05T20:06:06.814Z,96823.25
2022-10-05T20:08:47.647Z,96834.16
2022-10-05T20:11:20.468Z,96846.41
2022-10-05T20:13:53.460Z,96843.44
2022-10-05T20:16:45.436Z,96838.88
2022-10-05T20:19:52.465Z,96851.06
2022-10-05T20:22:32.727Z,96847.28
2022-10-05T20:25:03.264Z,96859.03
2022-10-05T20:27:51.092Z,96856.78
2022-10-05T20:30:28.929Z,96857.16
2022-10-05T20:32:58.203Z,96868.97
2022-10-05T20:35:27.866Z,96874.66
2022-10-05T20:38:00.044Z,96885.03
2022-10-05T20:40:29.235Z,96891.03
2022-10-05T20:42:57.462Z,96885.59
2022-10-05T20:45:24.246Z,96878.59
2022-10-05T20:47:51.024Z,96883.13
2022-10-05T20:50:18.378Z,96897.28
2022-10-05T20:52:45.788Z,96879.44
2022-10-05T20:55:12.715Z,96872.16
2022-10-05T20:57:42.149Z,96872.69
2022-10-05T21:00:10.797Z,96864.53
2022-10-05T21:02:38.083Z,96910.63
2022-10-05T21:05:05.181Z,96865.38
2022-10-05T21:07:34.151Z,96860.13
2022-10-05T21:10:03.077Z,96884.47
2022-10-05T21:12:30.182Z,96926.19
2022-10-05T21:14:56.842Z,96896.75
2022-10-05T21:17:23.502Z,96879.78
2022-10-05T21:19:50.187Z,96903.09
2022-10-05T21:22:16.915Z,96897.16
2022-10-05T21:24:43.599Z,96913.06
2022-10-05T21:27:10.276Z,96886.38
2022-10-05T21:29:37.182Z,96930.53
2022-10-05T21:32:08.656Z,96918.84
2022-10-05T21:34:35.421Z,96871.69
2022-10-05T21:37:02.098Z,96887.72
2022-10-05T21:39:28.709Z,96883.75
2022-10-05T21:41:55.425Z,96919.44
2022-10-05T21:44:22.344Z,96889.47
2022-10-05T21:46:49.364Z,96897.84
2022-10-05T21:49:19.635Z,96911.19
2022-10-05T21:51:47.250Z,96945.03
2022-10-05T21:54:17.285Z,96943.16
2022-10-05T21:56:48.245Z,96899.00
2022-10-05T21:59:18.804Z,96892.13
2022-10-05T22:01:45.947Z,96956.63
2022-10-05T22:04:12.631Z,96951.88
2022-10-05T22:06:39.419Z,96939.56
2022-10-05T22:09:06.123Z,96934.69
2022-10-05T22:11:33.614Z,96960.22
2022-10-05T22:14:03.156Z,96962.09
2022-10-05T22:16:33.280Z,96963.34
2022-10-05T22:19:05.662Z,96965.28
2022-10-05T22:21:37.752Z,96934.88
2022-10-05T22:24:04.579Z,96975.53
2022-10-05T22:26:31.272Z,96964.72
2022-10-05T22:28:57.898Z,96970.66
2022-10-05T22:31:24.577Z,96971.25
2022-10-05T22:33:51.323Z,96960.94
2022-10-05T22:36:18.825Z,96948.28
2022-10-05T22:38:47.454Z,96990.91
2022-10-05T22:41:17.098Z,96989.81
2022-10-05T22:43:43.941Z,96914.88
2022-10-05T22:46:11.893Z,96973.84
2022-10-05T22:48:39.540Z,96972.84
2022-10-05T22:51:06.683Z,96968.09
2022-10-05T22:53:33.646Z,97004.06
2022-10-05T22:56:11.905Z,96949.47
2022-10-05T22:58:39.326Z,96951.53
2022-10-05T23:01:08.708Z,96986.09
2022-10-05T23:03:36.008Z,96991.06
2022-10-05T23:06:05.663Z,97005.09
2022-10-05T23:08:34.663Z,97010.97
2022-10-05T23:11:03.321Z,96954.69
2022-10-05T23:13:30.470Z,97011.97
2022-10-05T23:15:57.401Z,96985.84
2022-10-05T23:18:24.279Z,97009.06
2022-10-05T23:20:55.484Z,96988.81
2022-10-05T23:23:23.350Z,97017.03
2022-10-05T23:25:50.509Z,96974.72
2022-10-05T23:28:18.288Z,97003.03
2022-10-05T23:30:45.269Z,97012.69
2022-10-05T23:33:11.946Z,97019.88
2022-10-05T23:35:38.648Z,96989.63
2022-10-05T23:38:05.308Z,96975.56
2022-10-05T23:40:31.940Z,96997.28
2022-10-05T23:42:58.537Z,96997.22
2022-10-05T23:45:25.154Z,96989.06
2022-10-05T23:47:51.794Z,96990.69
2022-10-05T23:50:20.551Z,96975.72
2022-10-05T23:52:47.162Z,97024.38
2022-10-05T23:55:13.827Z,97006.03
2022-10-05T23:57:40.417Z,97034.53
